sensor_id;sensor_type;location;lat;lon;timestamp;P1;durP1;ratioP1;P2;durP2;ratioP2
7051;SDS011;3567;52.444;13.556;2022-10-16T00:01:45;2.30;;;2.15;;
7051;SDS011;3567;52.444;13.556;2022-10-16T00:04:11;2.15;;;1.55;;
7051;SDS011;3567;52.444;13.556;2022-10-16T00:06:37;2.00;;;1.85;;
7051;SDS011;3567;52.444;13.556;2022-10-16T00:09:03;2.10;;;2.00;;
7051;SDS011;3567;52.444;13.556;2022-10-16T00:11:33;2.22;;;2.13;;
7051;SDS011;3567;52.444;13.556;2022-10-16T00:14:03;2.10;;;2.00;;
7051;SDS011;3567;52.444;13.556;2022-10-16T00:16:30;1.95;;;1.80;;
7051;SDS011;3567;52.444;13.556;2022-10-16T00:18:56;1.92;;;1.92;;
7051;SDS011;3567;52.444;13.556;2022-10-16T00:21:23;2.30;;;2.17;;
7051;SDS011;3567;52.444;13.556;2022-10-16T00:23:51;1.98;;;1.88;;
7051;SDS011;3567;52.444;13.556;2022-10-16T00:26:18;1.88;;;1.77;;
7051;SDS011;3567;52.444;13.556;2022-10-16T00:28:45;1.65;;;1.65;;
7051;SDS011;3567;52.444;13.556;2022-10-16T00:31:12;4.07;;;2.33;;
7051;SDS011;3567;52.444;13.556;2022-10-16T00:33:38;1.95;;;1.85;;
7051;SDS011;3567;52.444;13.556;2022-10-16T00:36:05;1.73;;;1.63;;
7051;SDS011;3567;52.444;13.556;2022-10-16T00:38:32;2.42;;;1.70;;
7051;SDS011;3567;52.444;13.556;2022-10-16T00:40:58;2.25;;;2.00;;
7051;SDS011;3567;52.444;13.556;2022-10-16T00:46:17;2.42;;;1.95;;
7051;SDS011;3567;52.444;13.556;2022-10-16T00:48:46;2.33;;;2.00;;
7051;SDS011;3567;52.444;13.556;2022-10-16T00:51:21;1.70;;;1.60;;
7051;SDS011;3567;52.444;13.556;2022-10-16T00:53:50;1.77;;;1.73;;
7051;SDS011;3567;52.444;13.556;2022-10-16T00:56:16;1.25;;;1.25;;
7051;SDS011;3567;52.444;13.556;2022-10-16T00:58:43;2.80;;;1.55;;
7051;SDS011;3567;52.444;13.556;2022-10-16T01:01:08;1.60;;;1.50;;
7051;SDS011;3567;52.444;13.556;2022-10-16T01:03:34;1.15;;;1.15;;
7051;SDS011;3567;52.444;13.556;2022-10-16T01:11:41;1.50;;;1.30;;
7051;SDS011;3567;52.444;13.556;2022-10-16T01:14:32;1.17;;;1.17;;
7051;SDS011;3567;52.444;13.556;2022-10-16T01:20:14;1.42;;;1.33;;
7051;SDS011;3567;52.444;13.556;2022-10-16T01:22:44;1.88;;;1.40;;
7051;SDS011;3567;52.444;13.556;2022-10-16T01:25:49;2.10;;;1.42;;
7051;SDS011;3567;52.444;13.556;2022-10-16T01:28:10;1.30;;;1.23;;
7051;SDS011;3567;52.444;13.556;2022-10-16T01:30:39;1.55;;;1.45;;
7051;SDS011;3567;52.444;13.556;2022-10-16T01:33:08;1.55;;;1.30;;
7051;SDS011;3567;52.444;13.556;2022-10-16T01:35:41;1.67;;;1.60;;
7051;SDS011;3567;52.444;13.556;2022-10-16T01:38:20;1.70;;;1.60;;
7051;SDS011;3567;52.444;13.556;2022-10-16T01:40:48;3.70;;;1.60;;
7051;SDS011;3567;52.444;13.556;2022-10-16T01:43:20;1.60;;;1.50;;
7051;SDS011;3567;52.444;13.556;2022-10-16T01:45:50;1.13;;;1.13;;
7051;SDS011;3567;52.444;13.556;2022-10-16T01:48:18;1.38;;;1.38;;
7051;SDS011;3567;52.444;13.556;2022-10-16T01:50:48;1.38;;;1.38;;
7051;SDS011;3567;52.444;13.556;2022-10-16T01:53:21;1.50;;;1.50;;
7051;SDS011;3567;52.444;13.556;2022-10-16T01:55:49;1.73;;;1.63;;
7051;SDS011;3567;52.444;13.556;2022-10-16T01:58:17;2.05;;;1.35;;
7051;SDS011;3567;52.444;13.556;2022-10-16T02:00:43;4.22;;;1.30;;
7051;SDS011;3567;52.444;13.556;2022-10-16T02:03:12;2.47;;;1.50;;
7051;SDS011;3567;52.444;13.556;2022-10-16T02:05:47;1.20;;;1.20;;
7051;SDS011;3567;52.444;13.556;2022-10-16T02:08:19;1.45;;;1.45;;
7051;SDS011;3567;52.444;13.556;2022-10-16T02:10:47;2.28;;;1.23;;
7051;SDS011;3567;52.444;13.556;2022-10-16T02:13:13;1.60;;;1.50;;
7051;SDS011;3567;52.444;13.556;2022-10-16T02:15:57;2.95;;;1.42;;
7051;SDS011;3567;52.444;13.556;2022-10-16T02:18:23;1.70;;;1.48;;
7051;SDS011;3567;52.444;13.556;2022-10-16T02:23:45;2.45;;;1.20;;
7051;SDS011;3567;52.444;13.556;2022-10-16T02:26:22;1.10;;;1.02;;
7051;SDS011;3567;52.444;13.556;2022-10-16T02:28:55;1.10;;;1.10;;
7051;SDS011;3567;52.444;13.556;2022-10-16T02:31:27;2.47;;;1.23;;
7051;SDS011;3567;52.444;13.556;2022-10-16T02:33:56;1.17;;;0.88;;
7051;SDS011;3567;52.444;13.556;2022-10-16T02:36:24;0.90;;;0.90;;
7051;SDS011;3567;52.444;13.556;2022-10-16T02:38:51;1.10;;;1.00;;
7051;SDS011;3567;52.444;13.556;2022-10-16T02:41:18;1.02;;;1.02;;
7051;SDS011;3567;52.444;13.556;2022-10-16T02:43:43;1.45;;;1.10;;
7051;SDS011;3567;52.444;13.556;2022-10-16T02:46:09;1.40;;;1.30;;
7051;SDS011;3567;52.444;13.556;2022-10-16T02:48:34;1.30;;;1.20;;
7051;SDS011;3567;52.444;13.556;2022-10-16T02:51:00;1.67;;;1.13;;
7051;SDS011;3567;52.444;13.556;2022-10-16T02:53:26;2.53;;;1.20;;
7051;SDS011;3567;52.444;13.556;2022-10-16T02:55:51;1.33;;;1.33;;
7051;SDS011;3567;52.444;13.556;2022-10-16T02:58:16;1.75;;;0.75;;
7051;SDS011;3567;52.444;13.556;2022-10-16T03:00:42;1.42;;;1.30;;
7051;SDS011;3567;52.444;13.556;2022-10-16T03:03:07;1.23;;;0.93;;
7051;SDS011;3567;52.444;13.556;2022-10-16T03:05:33;1.23;;;0.95;;
7051;SDS011;3567;52.444;13.556;2022-10-16T03:07:58;1.48;;;1.10;;
7051;SDS011;3567;52.444;13.556;2022-10-16T03:10:25;1.45;;;1.27;;
7051;SDS011;3567;52.444;13.556;2022-10-16T03:12:51;1.02;;;1.02;;
7051;SDS011;3567;52.444;13.556;2022-10-16T03:15:16;1.13;;;1.02;;
7051;SDS011;3567;52.444;13.556;2022-10-16T03:17:42;1.13;;;0.95;;
7051;SDS011;3567;52.444;13.556;2022-10-16T03:20:08;1.27;;;1.17;;
7051;SDS011;3567;52.444;13.556;2022-10-16T03:22:33;4.75;;;1.30;;
7051;SDS011;3567;52.444;13.556;2022-10-16T03:24:59;2.00;;;1.10;;
7051;SDS011;3567;52.444;13.556;2022-10-16T03:27:24;1.00;;;1.00;;
7051;SDS011;3567;52.444;13.556;2022-10-16T03:29:50;1.38;;;1.05;;
7051;SDS011;3567;52.444;13.556;2022-10-16T03:32:15;2.05;;;1.30;;
7051;SDS011;3567;52.444;13.556;2022-10-16T03:34:40;1.35;;;1.30;;
7051;SDS011;3567;52.444;13.556;2022-10-16T03:37:06;1.52;;;1.40;;
7051;SDS011;3567;52.444;13.556;2022-10-16T03:39:31;1.90;;;1.58;;
7051;SDS011;3567;52.444;13.556;2022-10-16T03:41:57;1.05;;;1.05;;
7051;SDS011;3567;52.444;13.556;2022-10-16T03:44:22;3.00;;;1.15;;
7051;SDS011;3567;52.444;13.556;2022-10-16T03:46:47;2.08;;;1.10;;
7051;SDS011;3567;52.444;13.556;2022-10-16T03:49:13;1.02;;;0.93;;
7051;SDS011;3567;52.444;13.556;2022-10-16T03:51:38;2.25;;;1.10;;
7051;SDS011;3567;52.444;13.556;2022-10-16T03:54:04;1.20;;;1.10;;
7051;SDS011;3567;52.444;13.556;2022-10-16T03:56:29;1.17;;;1.17;;
7051;SDS011;3567;52.444;13.556;2022-10-16T03:58:54;0.93;;;0.93;;
7051;SDS011;3567;52.444;13.556;2022-10-16T04:01:20;1.05;;;1.05;;
7051;SDS011;3567;52.444;13.556;2022-10-16T04:03:45;1.05;;;1.05;;
7051;SDS011;3567;52.444;13.556;2022-10-16T04:06:11;1.42;;;1.27;;
7051;SDS011;3567;52.444;13.556;2022-10-16T04:08:36;1.33;;;1.23;;
7051;SDS011;3567;52.444;13.556;2022-10-16T04:11:02;1.80;;;1.30;;
7051;SDS011;3567;52.444;13.556;2022-10-16T04:13:28;6.20;;;1.30;;
7051;SDS011;3567;52.444;13.556;2022-10-16T04:15:53;1.95;;;1.30;;
7051;SDS011;3567;52.444;13.556;2022-10-16T04:18:19;1.92;;;1.20;;
7051;SDS011;3567;52.444;13.556;2022-10-16T04:20:44;2.08;;;1.30;;
7051;SDS011;3567;52.444;13.556;2022-10-16T04:23:09;2.38;;;2.20;;
7051;SDS011;3567;52.444;13.556;2022-10-16T04:25:35;1.90;;;1.80;;
7051;SDS011;3567;52.444;13.556;2022-10-16T04:28:00;1.63;;;1.52;;
7051;SDS011;3567;52.444;13.556;2022-10-16T04:30:26;1.08;;;1.08;;
7051;SDS011;3567;52.444;13.556;2022-10-16T04:32:51;1.33;;;1.25;;
7051;SDS011;3567;52.444;13.556;2022-10-16T04:35:18;4.70;;;1.27;;
7051;SDS011;3567;52.444;13.556;2022-10-16T04:37:44;1.42;;;1.33;;
7051;SDS011;3567;52.444;13.556;2022-10-16T04:40:10;2.70;;;1.40;;
7051;SDS011;3567;52.444;13.556;2022-10-16T04:42:35;3.15;;;1.42;;
7051;SDS011;3567;52.444;13.556;2022-10-16T04:45:01;1.40;;;1.40;;
7051;SDS011;3567;52.444;13.556;2022-10-16T04:47:26;1.42;;;1.38;;
7051;SDS011;3567;52.444;13.556;2022-10-16T04:49:51;2.78;;;1.33;;
7051;SDS011;3567;52.444;13.556;2022-10-16T04:52:17;1.50;;;1.20;;
7051;SDS011;3567;52.444;13.556;2022-10-16T04:54:43;1.35;;;1.33;;
7051;SDS011;3567;52.444;13.556;2022-10-16T04:57:10;1.35;;;1.35;;
7051;SDS011;3567;52.444;13.556;2022-10-16T04:59:35;4.03;;;3.47;;
7051;SDS011;3567;52.444;13.556;2022-10-16T05:02:01;1.58;;;1.48;;
7051;SDS011;3567;52.444;13.556;2022-10-16T05:04:26;2.38;;;2.17;;
7051;SDS011;3567;52.444;13.556;2022-10-16T05:06:52;7.20;;;6.47;;
7051;SDS011;3567;52.444;13.556;2022-10-16T05:09:17;2.58;;;2.38;;
7051;SDS011;3567;52.444;13.556;2022-10-16T05:11:42;2.30;;;2.17;;
7051;SDS011;3567;52.444;13.556;2022-10-16T05:14:08;4.10;;;3.80;;
7051;SDS011;3567;52.444;13.556;2022-10-16T05:16:33;4.95;;;2.72;;
7051;SDS011;3567;52.444;13.556;2022-10-16T05:18:59;3.55;;;1.80;;
7051;SDS011;3567;52.444;13.556;2022-10-16T05:21:24;2.10;;;2.00;;
7051;SDS011;3567;52.444;13.556;2022-10-16T05:23:50;3.38;;;3.17;;
7051;SDS011;3567;52.444;13.556;2022-10-16T05:26:15;3.58;;;3.28;;
7051;SDS011;3567;52.444;13.556;2022-10-16T05:28:40;3.10;;;2.90;;
7051;SDS011;3567;52.444;13.556;2022-10-16T05:31:09;2.28;;;2.17;;
7051;SDS011;3567;52.444;13.556;2022-10-16T05:33:35;2.20;;;1.85;;
7051;SDS011;3567;52.444;13.556;2022-10-16T05:36:01;3.72;;;2.30;;
7051;SDS011;3567;52.444;13.556;2022-10-16T05:38:28;2.70;;;2.10;;
7051;SDS011;3567;52.444;13.556;2022-10-16T05:40:54;2.60;;;2.10;;
7051;SDS011;3567;52.444;13.556;2022-10-16T05:43:19;3.25;;;3.00;;
7051;SDS011;3567;52.444;13.556;2022-10-16T05:45:52;2.30;;;2.10;;
7051;SDS011;3567;52.444;13.556;2022-10-16T05:48:38;2.88;;;1.90;;
7051;SDS011;3567;52.444;13.556;2022-10-16T05:51:05;2.72;;;2.53;;
7051;SDS011;3567;52.444;13.556;2022-10-16T05:53:33;2.42;;;2.33;;
7051;SDS011;3567;52.444;13.556;2022-10-16T05:56:00;3.28;;;2.97;;
7051;SDS011;3567;52.444;13.556;2022-10-16T05:58:28;4.53;;;4.13;;
7051;SDS011;3567;52.444;13.556;2022-10-16T06:00:56;2.47;;;2.30;;
7051;SDS011;3567;52.444;13.556;2022-10-16T06:03:22;5.13;;;4.68;;
7051;SDS011;3567;52.444;13.556;2022-10-16T06:05:48;2.60;;;2.40;;
7051;SDS011;3567;52.444;13.556;2022-10-16T06:08:14;2.78;;;2.58;;
7051;SDS011;3567;52.444;13.556;2022-10-16T06:10:39;2.45;;;2.25;;
7051;SDS011;3567;52.444;13.556;2022-10-16T06:13:04;3.28;;;1.70;;
7051;SDS011;3567;52.444;13.556;2022-10-16T06:15:30;4.20;;;1.80;;
7051;SDS011;3567;52.444;13.556;2022-10-16T06:17:55;4.47;;;1.77;;
7051;SDS011;3567;52.444;13.556;2022-10-16T06:20:21;1.73;;;1.63;;
7051;SDS011;3567;52.444;13.556;2022-10-16T06:22:46;9.60;;;7.80;;
7051;SDS011;3567;52.444;13.556;2022-10-16T06:25:12;2.53;;;2.40;;
7051;SDS011;3567;52.444;13.556;2022-10-16T06:27:39;3.75;;;1.85;;
7051;SDS011;3567;52.444;13.556;2022-10-16T06:30:05;1.85;;;1.75;;
7051;SDS011;3567;52.444;13.556;2022-10-16T06:32:31;1.40;;;1.30;;
7051;SDS011;3567;52.444;13.556;2022-10-16T06:34:57;1.20;;;1.10;;
7051;SDS011;3567;52.444;13.556;2022-10-16T06:37:22;1.60;;;1.50;;
7051;SDS011;3567;52.444;13.556;2022-10-16T06:39:47;1.13;;;1.02;;
7051;SDS011;3567;52.444;13.556;2022-10-16T06:42:13;1.60;;;1.58;;
7051;SDS011;3567;52.444;13.556;2022-10-16T06:44:38;1.85;;;1.00;;
7051;SDS011;3567;52.444;13.556;2022-10-16T06:47:03;1.08;;;1.08;;
7051;SDS011;3567;52.444;13.556;2022-10-16T06:49:29;1.17;;;1.17;;
7051;SDS011;3567;52.444;13.556;2022-10-16T06:51:54;2.63;;;1.13;;
7051;SDS011;3567;52.444;13.556;2022-10-16T06:54:20;8.80;;;1.33;;
7051;SDS011;3567;52.444;13.556;2022-10-16T06:56:45;1.27;;;1.08;;
7051;SDS011;3567;52.444;13.556;2022-10-16T06:59:10;1.02;;;1.02;;
7051;SDS011;3567;52.444;13.556;2022-10-16T07:01:36;1.52;;;1.30;;
7051;SDS011;3567;52.444;13.556;2022-10-16T07:04:01;1.30;;;1.20;;
7051;SDS011;3567;52.444;13.556;2022-10-16T07:06:30;2.10;;;1.13;;
7051;SDS011;3567;52.444;13.556;2022-10-16T07:08:56;1.70;;;1.20;;
7051;SDS011;3567;52.444;13.556;2022-10-16T07:11:22;1.60;;;1.48;;
7051;SDS011;3567;52.444;13.556;2022-10-16T07:13:49;1.20;;;1.10;;
7051;SDS011;3567;52.444;13.556;2022-10-16T07:16:18;1.50;;;1.40;;
7051;SDS011;3567;52.444;13.556;2022-10-16T07:18:45;1.98;;;1.77;;
7051;SDS011;3567;52.444;13.556;2022-10-16T07:21:14;14.40;;;11.38;;
7051;SDS011;3567;52.444;13.556;2022-10-16T07:23:41;2.72;;;2.53;;
7051;SDS011;3567;52.444;13.556;2022-10-16T07:26:07;1.92;;;1.83;;
7051;SDS011;3567;52.444;13.556;2022-10-16T07:28:33;3.15;;;1.70;;
7051;SDS011;3567;52.444;13.556;2022-10-16T07:31:00;1.30;;;1.20;;
7051;SDS011;3567;52.444;13.556;2022-10-16T07:33:29;1.00;;;1.00;;
7051;SDS011;3567;52.444;13.556;2022-10-16T07:35:55;1.75;;;1.02;;
7051;SDS011;3567;52.444;13.556;2022-10-16T07:38:21;1.38;;;0.90;;
7051;SDS011;3567;52.444;13.556;2022-10-16T07:40:47;1.08;;;1.00;;
7051;SDS011;3567;52.444;13.556;2022-10-16T07:43:13;1.42;;;0.80;;
7051;SDS011;3567;52.444;13.556;2022-10-16T07:45:46;0.88;;;0.65;;
7051;SDS011;3567;52.444;13.556;2022-10-16T07:48:12;1.58;;;0.60;;
7051;SDS011;3567;52.444;13.556;2022-10-16T07:50:37;2.25;;;1.00;;
7051;SDS011;3567;52.444;13.556;2022-10-16T07:53:03;2.33;;;1.00;;
7051;SDS011;3567;52.444;13.556;2022-10-16T07:55:28;1.38;;;1.17;;
7051;SDS011;3567;52.444;13.556;2022-10-16T07:57:54;2.15;;;0.85;;
7051;SDS011;3567;52.444;13.556;2022-10-16T08:00:20;1.75;;;1.50;;
7051;SDS011;3567;52.444;13.556;2022-10-16T08:02:45;3.40;;;1.30;;
7051;SDS011;3567;52.444;13.556;2022-10-16T08:05:10;2.40;;;1.40;;
7051;SDS011;3567;52.444;13.556;2022-10-16T08:07:36;1.70;;;1.60;;
7051;SDS011;3567;52.444;13.556;2022-10-16T08:10:01;1.23;;;1.10;;
7051;SDS011;3567;52.444;13.556;2022-10-16T08:12:27;5.32;;;4.93;;
7051;SDS011;3567;52.444;13.556;2022-10-16T08:14:52;2.58;;;1.45;;
7051;SDS011;3567;52.444;13.556;2022-10-16T08:17:18;6.28;;;5.50;;
7051;SDS011;3567;52.444;13.556;2022-10-16T08:19:44;4.18;;;3.88;;
7051;SDS011;3567;52.444;13.556;2022-10-16T08:22:10;3.85;;;3.65;;
7051;SDS011;3567;52.444;13.556;2022-10-16T08:24:35;2.90;;;1.98;;
7051;SDS011;3567;52.444;13.556;2022-10-16T08:27:02;1.10;;;1.10;;
7051;SDS011;3567;52.444;13.556;2022-10-16T08:29:27;1.30;;;1.20;;
7051;SDS011;3567;52.444;13.556;2022-10-16T08:31:53;0.80;;;0.80;;
7051;SDS011;3567;52.444;13.556;2022-10-16T08:34:18;1.92;;;1.30;;
7051;SDS011;3567;52.444;13.556;2022-10-16T08:36:44;3.17;;;2.95;;
7051;SDS011;3567;52.444;13.556;2022-10-16T08:39:09;4.35;;;1.95;;
7051;SDS011;3567;52.444;13.556;2022-10-16T08:49:58;1.15;;;0.68;;
7051;SDS011;3567;52.444;13.556;2022-10-16T08:52:30;2.55;;;0.90;;
7051;SDS011;3567;52.444;13.556;2022-10-16T08:55:00;1.00;;;0.60;;
7051;SDS011;3567;52.444;13.556;2022-10-16T08:57:27;1.90;;;0.63;;
7051;SDS011;3567;52.444;13.556;2022-10-16T08:59:52;1.80;;;0.50;;
7051;SDS011;3567;52.444;13.556;2022-10-16T09:02:23;0.95;;;0.95;;
7051;SDS011;3567;52.444;13.556;2022-10-16T09:07:55;0.70;;;0.50;;
7051;SDS011;3567;52.444;13.556;2022-10-16T09:10:28;0.85;;;0.60;;
7051;SDS011;3567;52.444;13.556;2022-10-16T09:16:24;1.17;;;0.50;;
7051;SDS011;3567;52.444;13.556;2022-10-16T09:19:00;2.67;;;0.80;;
7051;SDS011;3567;52.444;13.556;2022-10-16T09:21:31;0.90;;;0.90;;
7051;SDS011;3567;52.444;13.556;2022-10-16T09:24:06;0.70;;;0.70;;
7051;SDS011;3567;52.444;13.556;2022-10-16T09:26:36;1.90;;;0.60;;
7051;SDS011;3567;52.444;13.556;2022-10-16T09:29:02;0.88;;;0.50;;
7051;SDS011;3567;52.444;13.556;2022-10-16T09:31:27;0.55;;;0.45;;
7051;SDS011;3567;52.444;13.556;2022-10-16T09:33:54;1.73;;;0.40;;
7051;SDS011;3567;52.444;13.556;2022-10-16T09:36:23;1.58;;;0.77;;
7051;SDS011;3567;52.444;13.556;2022-10-16T09:39:00;0.65;;;0.38;;
7051;SDS011;3567;52.444;13.556;2022-10-16T09:41:30;0.75;;;0.55;;
7051;SDS011;3567;52.444;13.556;2022-10-16T09:43:59;0.85;;;0.65;;
7051;SDS011;3567;52.444;13.556;2022-10-16T09:46:33;1.48;;;0.45;;
7051;SDS011;3567;52.444;13.556;2022-10-16T09:49:01;0.82;;;0.47;;
7051;SDS011;3567;52.444;13.556;2022-10-16T09:51:29;1.85;;;0.35;;
7051;SDS011;3567;52.444;13.556;2022-10-16T09:53:56;0.68;;;0.40;;
7051;SDS011;3567;52.444;13.556;2022-10-16T09:56:26;1.10;;;0.40;;
7051;SDS011;3567;52.444;13.556;2022-10-16T09:58:55;0.38;;;0.30;;
7051;SDS011;3567;52.444;13.556;2022-10-16T10:01:24;0.35;;;0.30;;
7051;SDS011;3567;52.444;13.556;2022-10-16T10:03:55;0.40;;;0.40;;
7051;SDS011;3567;52.444;13.556;2022-10-16T10:06:27;0.55;;;0.30;;
7051;SDS011;3567;52.444;13.556;2022-10-16T10:09:37;1.13;;;0.40;;
7051;SDS011;3567;52.444;13.556;2022-10-16T10:14:21;0.50;;;0.50;;
7051;SDS011;3567;52.444;13.556;2022-10-16T10:17:02;1.10;;;0.40;;
7051;SDS011;3567;52.444;13.556;2022-10-16T10:19:37;0.95;;;0.50;;
7051;SDS011;3567;52.444;13.556;2022-10-16T10:22:21;0.52;;;0.30;;
7051;SDS011;3567;52.444;13.556;2022-10-16T10:25:22;0.60;;;0.30;;
7051;SDS011;3567;52.444;13.556;2022-10-16T10:41:26;0.75;;;0.50;;
7051;SDS011;3567;52.444;13.556;2022-10-16T10:46:55;3.20;;;0.40;;
7051;SDS011;3567;52.444;13.556;2022-10-16T10:54:53;0.30;;;0.30;;
7051;SDS011;3567;52.444;13.556;2022-10-16T11:00:19;0.52;;;0.40;;
7051;SDS011;3567;52.444;13.556;2022-10-16T11:02:54;1.50;;;0.30;;
7051;SDS011;3567;52.444;13.556;2022-10-16T11:11:11;0.20;;;0.20;;
7051;SDS011;3567;52.444;13.556;2022-10-16T11:13:45;0.68;;;0.40;;
7051;SDS011;3567;52.444;13.556;2022-10-16T11:16:48;0.75;;;0.35;;
7051;SDS011;3567;52.444;13.556;2022-10-16T11:19:22;1.75;;;0.35;;
7051;SDS011;3567;52.444;13.556;2022-10-16T11:24:51;0.35;;;0.35;;
7051;SDS011;3567;52.444;13.556;2022-10-16T11:27:33;0.20;;;0.20;;
7051;SDS011;3567;52.444;13.556;2022-10-16T11:30:19;0.50;;;0.30;;
7051;SDS011;3567;52.444;13.556;2022-10-16T11:38:34;0.20;;;0.20;;
7051;SDS011;3567;52.444;13.556;2022-10-16T11:41:14;0.43;;;0.43;;
7051;SDS011;3567;52.444;13.556;2022-10-16T11:47:35;1.45;;;0.68;;
7051;SDS011;3567;52.444;13.556;2022-10-16T11:49:34;0.60;;;0.60;;
7051;SDS011;3567;52.444;13.556;2022-10-16T11:52:13;4.38;;;0.40;;
7051;SDS011;3567;52.444;13.556;2022-10-16T11:54:53;0.98;;;0.50;;
7051;SDS011;3567;52.444;13.556;2022-10-16T11:57:26;1.83;;;0.38;;
7051;SDS011;3567;52.444;13.556;2022-10-16T12:02:40;2.03;;;0.30;;
7051;SDS011;3567;52.444;13.556;2022-10-16T12:05:20;1.85;;;0.20;;
7051;SDS011;3567;52.444;13.556;2022-10-16T12:10:35;0.45;;;0.20;;
7051;SDS011;3567;52.444;13.556;2022-10-16T12:13:03;1.77;;;0.30;;
7051;SDS011;3567;52.444;13.556;2022-10-16T12:15:47;0.30;;;0.30;;
7051;SDS011;3567;52.444;13.556;2022-10-16T12:18:22;0.20;;;0.20;;
7051;SDS011;3567;52.444;13.556;2022-10-16T12:20:56;1.02;;;0.13;;
7051;SDS011;3567;52.444;13.556;2022-10-16T12:23:30;1.73;;;0.40;;
7051;SDS011;3567;52.444;13.556;2022-10-16T12:26:00;0.20;;;0.20;;
7051;SDS011;3567;52.444;13.556;2022-10-16T12:28:31;0.32;;;0.32;;
7051;SDS011;3567;52.444;13.556;2022-10-16T12:30:58;0.43;;;0.43;;
7051;SDS011;3567;52.444;13.556;2022-10-16T12:33:27;0.30;;;0.30;;
7051;SDS011;3567;52.444;13.556;2022-10-16T12:35:54;0.20;;;0.20;;
7051;SDS011;3567;52.444;13.556;2022-10-16T12:38:21;0.20;;;0.20;;
7051;SDS011;3567;52.444;13.556;2022-10-16T12:43:25;0.30;;;0.20;;
7051;SDS011;3567;52.444;13.556;2022-10-16T12:46:01;0.30;;;0.30;;
7051;SDS011;3567;52.444;13.556;2022-10-16T12:48:45;0.47;;;0.32;;
7051;SDS011;3567;52.444;13.556;2022-10-16T12:51:25;0.30;;;0.30;;
7051;SDS011;3567;52.444;13.556;2022-10-16T13:02:54;2.85;;;0.30;;
7051;SDS011;3567;52.444;13.556;2022-10-16T13:17:13;0.63;;;0.20;;
7051;SDS011;3567;52.444;13.556;2022-10-16T13:28:16;1.27;;;0.32;;
7051;SDS011;3567;52.444;13.556;2022-10-16T13:30:50;0.32;;;0.32;;
7051;SDS011;3567;52.444;13.556;2022-10-16T13:35:50;0.80;;;0.20;;
7051;SDS011;3567;52.444;13.556;2022-10-16T13:38:18;1.85;;;0.22;;
7051;SDS011;3567;52.444;13.556;2022-10-16T13:43:20;0.40;;;0.30;;
7051;SDS011;3567;52.444;13.556;2022-10-16T13:45:53;0.65;;;0.30;;
7051;SDS011;3567;52.444;13.556;2022-10-16T13:48:23;0.65;;;0.30;;
7051;SDS011;3567;52.444;13.556;2022-10-16T13:53:47;1.65;;;0.20;;
7051;SDS011;3567;52.444;13.556;2022-10-16T13:56:16;3.03;;;0.30;;
7051;SDS011;3567;52.444;13.556;2022-10-16T13:58:43;0.20;;;0.20;;
7051;SDS011;3567;52.444;13.556;2022-10-16T14:01:25;2.85;;;0.52;;
7051;SDS011;3567;52.444;13.556;2022-10-16T14:04:03;0.30;;;0.30;;
7051;SDS011;3567;52.444;13.556;2022-10-16T14:06:32;0.50;;;0.30;;
7051;SDS011;3567;52.444;13.556;2022-10-16T14:08:59;1.35;;;0.22;;
7051;SDS011;3567;52.444;13.556;2022-10-16T14:11:29;0.20;;;0.20;;
7051;SDS011;3567;52.444;13.556;2022-10-16T14:13:55;0.20;;;0.20;;
7051;SDS011;3567;52.444;13.556;2022-10-16T14:16:22;3.92;;;0.55;;
7051;SDS011;3567;52.444;13.556;2022-10-16T14:18:56;1.30;;;0.40;;
7051;SDS011;3567;52.444;13.556;2022-10-16T14:21:22;1.13;;;1.02;;
7051;SDS011;3567;52.444;13.556;2022-10-16T14:23:47;0.90;;;0.77;;
7051;SDS011;3567;52.444;13.556;2022-10-16T14:26:14;1.50;;;1.10;;
7051;SDS011;3567;52.444;13.556;2022-10-16T14:28:41;0.98;;;0.75;;
7051;SDS011;3567;52.444;13.556;2022-10-16T14:33:53;1.45;;;0.40;;
7051;SDS011;3567;52.444;13.556;2022-10-16T14:36:19;0.43;;;0.40;;
7051;SDS011;3567;52.444;13.556;2022-10-16T14:41:15;0.20;;;0.20;;
7051;SDS011;3567;52.444;13.556;2022-10-16T14:43:41;0.60;;;0.30;;
7051;SDS011;3567;52.444;13.556;2022-10-16T14:46:14;0.38;;;0.38;;
7051;SDS011;3567;52.444;13.556;2022-10-16T14:48:42;1.75;;;0.60;;
7051;SDS011;3567;52.444;13.556;2022-10-16T14:51:14;0.70;;;0.32;;
7051;SDS011;3567;52.444;13.556;2022-10-16T14:53:40;2.03;;;0.50;;
7051;SDS011;3567;52.444;13.556;2022-10-16T14:56:07;0.30;;;0.30;;
7051;SDS011;3567;52.444;13.556;2022-10-16T14:58:34;0.20;;;0.20;;
7051;SDS011;3567;52.444;13.556;2022-10-16T15:01:00;0.20;;;0.20;;
7051;SDS011;3567;52.444;13.556;2022-10-16T15:03:25;0.40;;;0.40;;
7051;SDS011;3567;52.444;13.556;2022-10-16T15:05:50;0.52;;;0.40;;
7051;SDS011;3567;52.444;13.556;2022-10-16T15:08:16;2.30;;;1.67;;
7051;SDS011;3567;52.444;13.556;2022-10-16T15:10:42;0.77;;;0.77;;
7051;SDS011;3567;52.444;13.556;2022-10-16T15:13:10;0.77;;;0.30;;
7051;SDS011;3567;52.444;13.556;2022-10-16T15:15:39;1.02;;;0.60;;
7051;SDS011;3567;52.444;13.556;2022-10-16T15:18:07;0.55;;;0.55;;
7051;SDS011;3567;52.444;13.556;2022-10-16T15:20:34;0.40;;;0.40;;
7051;SDS011;3567;52.444;13.556;2022-10-16T15:23:02;1.85;;;0.30;;
7051;SDS011;3567;52.444;13.556;2022-10-16T15:25:42;6.68;;;0.70;;
7051;SDS011;3567;52.444;13.556;2022-10-16T15:28:10;0.40;;;0.40;;
7051;SDS011;3567;52.444;13.556;2022-10-16T15:30:37;0.60;;;0.30;;
7051;SDS011;3567;52.444;13.556;2022-10-16T15:33:03;9.02;;;7.90;;
7051;SDS011;3567;52.444;13.556;2022-10-16T15:35:29;2.10;;;1.27;;
7051;SDS011;3567;52.444;13.556;2022-10-16T15:37:55;0.60;;;0.60;;
7051;SDS011;3567;52.444;13.556;2022-10-16T15:40:20;0.93;;;0.50;;
7051;SDS011;3567;52.444;13.556;2022-10-16T15:42:47;0.50;;;0.50;;
7051;SDS011;3567;52.444;13.556;2022-10-16T15:45:13;0.50;;;0.50;;
7051;SDS011;3567;52.444;13.556;2022-10-16T15:47:38;0.95;;;0.30;;
7051;SDS011;3567;52.444;13.556;2022-10-16T15:50:06;0.35;;;0.35;;
7051;SDS011;3567;52.444;13.556;2022-10-16T15:52:31;0.40;;;0.40;;
7051;SDS011;3567;52.444;13.556;2022-10-16T15:54:57;0.90;;;0.60;;
7051;SDS011;3567;52.444;13.556;2022-10-16T15:57:23;1.42;;;0.88;;
7051;SDS011;3567;52.444;13.556;2022-10-16T15:59:49;1.17;;;1.08;;
7051;SDS011;3567;52.444;13.556;2022-10-16T16:02:14;1.40;;;1.30;;
7051;SDS011;3567;52.444;13.556;2022-10-16T16:04:40;3.35;;;2.83;;
7051;SDS011;3567;52.444;13.556;2022-10-16T16:07:05;6.18;;;5.57;;
7051;SDS011;3567;52.444;13.556;2022-10-16T16:09:32;4.13;;;3.83;;
7051;SDS011;3567;52.444;13.556;2022-10-16T16:11:58;2.60;;;2.50;;
7051;SDS011;3567;52.444;13.556;2022-10-16T16:14:25;2.22;;;1.20;;
7051;SDS011;3567;52.444;13.556;2022-10-16T16:16:52;5.30;;;1.58;;
7051;SDS011;3567;52.444;13.556;2022-10-16T16:19:18;0.90;;;0.90;;
7051;SDS011;3567;52.444;13.556;2022-10-16T16:21:46;1.58;;;0.70;;
7051;SDS011;3567;52.444;13.556;2022-10-16T16:24:12;1.67;;;0.60;;
7051;SDS011;3567;52.444;13.556;2022-10-16T16:26:37;1.85;;;0.50;;
7051;SDS011;3567;52.444;13.556;2022-10-16T16:29:04;1.65;;;0.40;;
7051;SDS011;3567;52.444;13.556;2022-10-16T16:31:30;0.95;;;0.50;;
7051;SDS011;3567;52.444;13.556;2022-10-16T16:33:56;0.98;;;0.50;;
7051;SDS011;3567;52.444;13.556;2022-10-16T16:36:23;1.55;;;0.50;;
7051;SDS011;3567;52.444;13.556;2022-10-16T16:38:49;0.68;;;0.68;;
7051;SDS011;3567;52.444;13.556;2022-10-16T16:41:20;1.05;;;0.70;;
7051;SDS011;3567;52.444;13.556;2022-10-16T16:43:47;1.23;;;0.93;;
7051;SDS011;3567;52.444;13.556;2022-10-16T16:46:13;1.20;;;1.15;;
7051;SDS011;3567;52.444;13.556;2022-10-16T16:48:39;2.00;;;1.38;;
7051;SDS011;3567;52.444;13.556;2022-10-16T16:51:06;2.88;;;2.10;;
7051;SDS011;3567;52.444;13.556;2022-10-16T16:53:41;3.30;;;3.03;;
7051;SDS011;3567;52.444;13.556;2022-10-16T16:56:07;6.43;;;4.60;;
7051;SDS011;3567;52.444;13.556;2022-10-16T16:58:33;5.63;;;5.03;;
7051;SDS011;3567;52.444;13.556;2022-10-16T17:00:59;11.57;;;10.43;;
7051;SDS011;3567;52.444;13.556;2022-10-16T17:03:30;43.70;;;34.85;;
7051;SDS011;3567;52.444;13.556;2022-10-16T17:05:58;30.00;;;23.98;;
7051;SDS011;3567;52.444;13.556;2022-10-16T17:08:25;13.23;;;11.82;;
7051;SDS011;3567;52.444;13.556;2022-10-16T17:10:50;8.98;;;7.60;;
7051;SDS011;3567;52.444;13.556;2022-10-16T17:13:19;8.43;;;6.47;;